Time;durP1;ratioP1;P1;durP2;ratioP2;P2;SDS_P1;SDS_P2;PMS_P1;PMS_P2;Temp;Humidity;BMP_temperature;BMP_pressure;BME280_temperature;BME280_humidity;BME280_pressure;Samples;Min_cycle;Max_cycle;Signal;HPM_P1;HPM_P2
2022/11/11 00:03:28;;;;;;;;;;;;;;;8.27;100.00;100766.72;8298395;28;19929;-81
2022/11/11 00:07:30;;;;;;;;;;;;;;;8.26;100.00;100754.63;8318952;28;19929;-81
2022/11/11 00:11:31;;;;;;;;;;;;;;;8.26;100.00;100757.19;8306728;28;19933;-81
2022/11/11 00:15:35;;;;;;;;;;;;;;;8.27;100.00;100761.53;8300144;28;19936;-81
2022/11/11 00:28:17;;;;;;;;;;;;;;;8.35;100.00;100769.53;8305011;28;20457;-81
2022/11/11 00:36:29;;;;;;;;;;;;;;;8.25;100.00;100765.75;8552814;23;19925;-80
2022/11/11 00:40:30;;;;;;;;;;;;;;;8.23;100.00;100766.56;8286916;28;19929;-81
2022/11/11 00:44:32;;;;;;;;;;;;;;;8.21;100.00;100774.28;8304840;28;19929;-80
2022/11/11 00:52:53;;;;;;;;;;;;;;;8.18;100.00;100776.78;8327914;28;19982;-80
2022/11/11 00:56:55;;;;;;;;;;;;;;;8.19;100.00;100778.56;8305763;28;19925;-81
2022/11/11 01:00:57;;;;;;;;;;;;;;;8.23;100.00;100774.31;8302909;28;20514;-80
2022/11/11 01:04:58;;;;;;;;;;;;;;;8.26;100.00;100771.81;8307937;28;20265;-80
2022/11/11 01:09:03;;;;;;;;;;;;;;;8.27;100.00;100776.19;8307635;28;19929;-80
2022/11/11 01:13:12;;;;;;;;;;;;;;;8.24;100.00;100776.06;8331163;28;19986;-80
2022/11/11 01:17:13;;;;;;;;;;;;;;;8.23;100.00;100782.09;8311417;28;19929;-81
2022/11/11 01:21:16;;;;;;;;;;;;;;;8.22;100.00;100776.03;8305910;28;19933;-80
2022/11/11 01:25:17;;;;;;;;;;;;;;;8.23;100.00;100779.50;8312368;28;19926;-80
2022/11/11 01:29:19;;;;;;;;;;;;;;;8.21;100.00;100776.88;8315405;28;19933;-81
2022/11/11 01:33:20;;;;;;;;;;;;;;;8.16;100.00;100769.00;8281309;28;19929;-80
2022/11/11 01:37:22;;;;;;;;;;;;;;;8.14;100.00;100772.38;8332553;28;19939;-80
2022/11/11 01:41:35;;;;;;;;;;;;;;;8.08;100.00;100772.22;8297195;28;20359;-81
2022/11/11 01:45:56;;;;;;;;;;;;;;;8.02;100.00;100772.03;8297847;28;19933;-80
2022/11/11 01:50:00;;;;;;;;;;;;;;;7.99;100.00;100771.94;8326081;28;19982;-80
2022/11/11 01:54:06;;;;;;;;;;;;;;;8.01;100.00;100784.09;8316272;28;19955;-80
2022/11/11 01:58:10;;;;;;;;;;;;;;;8.03;100.00;100776.38;8326167;28;19956;-80
2022/11/11 02:02:22;;;;;;;;;;;;;;;8.00;100.00;100771.13;8310392;28;20019;-80
2022/11/11 02:06:24;;;;;;;;;;;;;;;8.02;100.00;100780.66;8332745;28;20265;-79
2022/11/11 02:10:28;;;;;;;;;;;;;;;8.01;100.00;100770.28;8302350;28;19925;-80
2022/11/11 02:14:36;;;;;;;;;;;;;;;8.03;100.00;100779.81;8304553;28;20657;-81
2022/11/11 02:18:38;;;;;;;;;;;;;;;8.02;100.00;100772.03;8299799;28;20004;-80
2022/11/11 02:23:02;;;;;;;;;;;;;;;8.01;100.00;100784.09;8310103;28;19925;-80
2022/11/11 02:27:05;;;;;;;;;;;;;;;7.96;100.00;100772.75;8310906;28;20007;-80
2022/11/11 02:31:08;;;;;;;;;;;;;;;7.96;100.00;100770.16;8328933;28;19968;-80
2022/11/11 02:35:15;;;;;;;;;;;;;;;7.96;100.00;100771.88;8294956;28;19979;-80
2022/11/11 02:39:17;;;;;;;;;;;;;;;7.88;100.00;100769.03;8292292;28;19929;-80
2022/11/11 02:43:28;;;;;;;;;;;;;;;7.83;100.00;100771.50;8284165;28;19926;-80
2022/11/11 02:47:30;;;;;;;;;;;;;;;7.80;100.00;100768.84;8280691;28;20301;-80
2022/11/11 02:51:31;;;;;;;;;;;;;;;7.83;100.00;100765.47;8295991;28;19960;-80
2022/11/11 02:55:33;;;;;;;;;;;;;;;7.85;100.00;100759.50;8308093;28;20032;-80
2022/11/11 02:59:35;;;;;;;;;;;;;;;7.86;100.00;100757.78;8306839;28;19937;-80
2022/11/11 03:03:37;;;;;;;;;;;;;;;7.88;100.00;100750.94;8262379;28;19926;-80
2022/11/11 03:07:38;;;;;;;;;;;;;;;7.81;100.00;100749.91;8247213;28;20351;-81
2022/11/11 03:11:40;;;;;;;;;;;;;;;7.76;100.00;100766.13;8264222;28;19953;-80
2022/11/11 03:15:41;;;;;;;;;;;;;;;7.77;100.00;100773.06;8254939;28;19941;-80
2022/11/11 03:19:43;;;;;;;;;;;;;;;7.80;100.00;100775.72;8284566;28;20004;-80
2022/11/11 03:23:44;;;;;;;;;;;;;;;7.79;100.00;100785.19;8302361;28;19929;-80
2022/11/11 03:27:46;;;;;;;;;;;;;;;7.82;100.00;100803.38;8298603;28;20369;-80
2022/11/11 03:31:47;;;;;;;;;;;;;;;7.82;100.00;100805.97;8286702;28;19936;-80
2022/11/11 03:35:49;;;;;;;;;;;;;;;7.81;100.00;100811.09;8303365;28;19932;-80
2022/11/11 03:39:50;;;;;;;;;;;;;;;7.78;100.00;100811.00;8330980;28;19933;-80
2022/11/11 03:43:52;;;;;;;;;;;;;;;7.77;100.00;100804.06;8299478;28;20264;-80
2022/11/11 03:47:53;;;;;;;;;;;;;;;7.79;100.00;100808.47;8312417;28;19987;-80
2022/11/11 03:51:55;;;;;;;;;;;;;;;7.77;100.00;100804.97;8335964;28;20499;-80
2022/11/11 03:55:56;;;;;;;;;;;;;;;7.72;100.00;100798.78;8333431;28;19960;-80
2022/11/11 03:59:57;;;;;;;;;;;;;;;7.67;100.00;100799.44;8344199;28;19980;-80
2022/11/11 04:17:01;;;;;;;;;;;;;;;7.61;100.00;100822.53;8312578;28;19998;-78
2022/11/11 04:29:43;;;;;;;;;;;;;;;7.45;100.00;100826.34;8346692;28;19939;-78
2022/11/11 04:33:44;;;;;;;;;;;;;;;7.43;100.00;100810.81;8316520;28;20002;-78
2022/11/11 04:37:48;;;;;;;;;;;;;;;7.45;100.00;100805.69;8322580;28;20410;-78
2022/11/11 04:41:50;;;;;;;;;;;;;;;7.43;100.00;100810.81;8330547;28;19928;-78
2022/11/11 04:46:08;;;;;;;;;;;;;;;7.39;100.00;100819.31;8315360;28;19939;-78
2022/11/11 04:50:09;;;;;;;;;;;;;;;7.26;100.00;100828.38;8370659;28;20335;-78
2022/11/11 04:54:11;;;;;;;;;;;;;;;7.22;100.00;100836.84;8325793;28;19937;-78
2022/11/11 04:58:12;;;;;;;;;;;;;;;7.15;100.00;100837.47;8352870;28;19925;-78
2022/11/11 05:10:59;;;;;;;;;;;;;;;7.01;100.00;100853.34;8355080;28;19940;-77
2022/11/11 05:28:01;;;;;;;;;;;;;;;6.80;100.00;100867.28;8337145;28;20496;-77
2022/11/11 05:32:03;;;;;;;;;;;;;;;6.82;100.00;100870.81;8351813;28;19929;-77
2022/11/11 05:36:04;;;;;;;;;;;;;;;6.86;100.00;100883.00;8341353;28;19983;-77
2022/11/11 05:40:06;;;;;;;;;;;;;;;6.93;100.00;100886.66;8327903;28;19925;-77
2022/11/11 05:44:08;;;;;;;;;;;;;;;6.89;100.00;100877.03;8360196;28;19931;-77
2022/11/11 05:48:09;;;;;;;;;;;;;;;6.86;100.00;100889.84;8328318;28;20033;-77
2022/11/11 05:52:11;;;;;;;;;;;;;;;6.89;100.00;100887.38;8347151;28;19924;-77
2022/11/11 05:56:13;;;;;;;;;;;;;;;6.90;100.00;100877.09;8354644;28;19935;-77
2022/11/11 06:00:15;;;;;;;;;;;;;;;6.82;100.00;100883.72;8357357;28;20336;-77
2022/11/11 06:04:16;;;;;;;;;;;;;;;6.77;100.00;100890.41;8343621;28;19929;-78
2022/11/11 06:08:18;;;;;;;;;;;;;;;6.65;100.00;100883.13;8344951;28;20016;-77
2022/11/11 06:12:20;;;;;;;;;;;;;;;6.59;100.00;100892.34;8328115;28;19986;-77
2022/11/11 06:16:21;;;;;;;;;;;;;;;6.50;100.00;100889.44;8327772;28;19925;-77
2022/11/11 06:20:23;;;;;;;;;;;;;;;6.45;100.00;100890.94;8348013;28;19932;-78
2022/11/11 06:24:24;;;;;;;;;;;;;;;6.44;100.00;100902.09;8326308;28;19933;-77
2022/11/11 06:28:27;;;;;;;;;;;;;;;6.51;100.00;100909.25;8348163;28;20319;-78
2022/11/11 06:32:28;;;;;;;;;;;;;;;6.57;100.00;100905.19;8339416;28;19929;-78
2022/11/11 06:36:30;;;;;;;;;;;;;;;6.62;100.00;100910.50;8325664;28;19925;-78
2022/11/11 06:40:32;;;;;;;;;;;;;;;6.64;100.00;100909.75;8349636;28;19979;-78
2022/11/11 06:44:33;;;;;;;;;;;;;;;6.67;100.00;100911.56;8343573;28;19933;-78
2022/11/11 06:48:36;;;;;;;;;;;;;;;6.69;100.00;100915.06;8358379;28;19928;-78
2022/11/11 06:52:37;;;;;;;;;;;;;;;6.71;100.00;100922.88;8375716;28;20444;-77
2022/11/11 06:56:39;;;;;;;;;;;;;;;6.74;100.00;100920.41;8362105;28;19938;-78
2022/11/11 07:00:41;;;;;;;;;;;;;;;6.75;100.00;100919.56;8348702;28;20043;-78
2022/11/11 07:04:42;;;;;;;;;;;;;;;6.79;100.00;100927.47;8329148;28;19992;-78
2022/11/11 07:08:43;;;;;;;;;;;;;;;6.81;100.00;100918.06;8351923;28;19964;-78
2022/11/11 07:12:45;;;;;;;;;;;;;;;6.83;100.00;100918.16;8344386;28;19983;-78
2022/11/11 07:16:46;;;;;;;;;;;;;;;6.87;100.00;100917.44;8336840;28;19978;-78
2022/11/11 07:20:48;;;;;;;;;;;;;;;6.91;100.00;100919.28;8331942;28;19940;-78
2022/11/11 07:24:49;;;;;;;;;;;;;;;6.90;100.00;100925.28;8358633;28;19928;-78
2022/11/11 07:28:51;;;;;;;;;;;;;;;6.91;100.00;100922.75;8338613;28;19941;-79
2022/11/11 07:32:52;;;;;;;;;;;;;;;6.94;100.00;100929.72;8318762;28;20357;-79
2022/11/11 07:36:54;;;;;;;;;;;;;;;6.98;100.00;100931.56;8316525;28;19939;-78
2022/11/11 07:40:56;;;;;;;;;;;;;;;7.03;100.00;100932.63;8321414;28;19925;-78
2022/11/11 07:44:57;;;;;;;;;;;;;;;7.08;100.00;100933.66;8318759;28;20636;-78
2022/11/11 07:48:58;;;;;;;;;;;;;;;7.11;100.00;100933.75;8316018;28;20019;-78
2022/11/11 07:53:00;;;;;;;;;;;;;;;7.13;100.00;100932.09;8296186;28;20017;-78
2022/11/11 07:57:02;;;;;;;;;;;;;;;7.10;100.00;100942.34;8303402;28;19976;-78
2022/11/11 08:01:03;;;;;;;;;;;;;;;7.01;100.00;100942.03;8302302;28;19933;-79
2022/11/11 08:05:09;;;;;;;;;;;;;;;6.97;100.00;100950.47;8340781;28;19987;-78
2022/11/11 08:09:11;;;;;;;;;;;;;;;7.00;100.00;100952.28;8306949;28;19945;-79
2022/11/11 08:17:37;;;;;;;;;;;;;;;6.89;100.00;100952.81;8313177;28;20012;-79
2022/11/11 08:21:38;;;;;;;;;;;;;;;6.90;100.00;100961.44;8301588;28;19927;-78
2022/11/11 08:25:40;;;;;;;;;;;;;;;6.89;100.00;100960.53;8323740;28;19990;-79
2022/11/11 08:29:41;;;;;;;;;;;;;;;6.88;100.00;100963.06;8278841;28;19942;-79
2022/11/11 08:33:42;;;;;;;;;;;;;;;6.87;100.00;100959.63;8295356;28;20006;-79
2022/11/11 08:37:44;;;;;;;;;;;;;;;6.85;100.00;100966.44;8359528;28;19932;-79
2022/11/11 08:41:46;;;;;;;;;;;;;;;6.85;100.00;100960.38;8358987;28;19936;-79
2022/11/11 08:45:51;;;;;;;;;;;;;;;6.86;100.00;100959.56;8331953;28;20038;-79
2022/11/11 08:49:52;;;;;;;;;;;;;;;6.79;100.00;100961.03;8340722;28;20564;-79
2022/11/11 08:53:53;;;;;;;;;;;;;;;6.79;100.00;100965.31;8358436;28;19929;-79
2022/11/11 08:57:59;;;;;;;;;;;;;;;6.77;99.64;100959.22;8336664;28;20028;-79
2022/11/11 09:02:00;;;;;;;;;;;;;;;6.79;99.94;100957.56;8355932;28;19947;-79
2022/11/11 09:06:02;;;;;;;;;;;;;;;6.79;100.00;100955.88;8327481;28;19939;-79
2022/11/11 09:10:03;;;;;;;;;;;;;;;6.80;99.60;100949.00;8340107;28;19925;-79
2022/11/11 09:14:05;;;;;;;;;;;;;;;6.86;100.00;100954.41;8322093;28;20051;-80
2022/11/11 09:18:07;;;;;;;;;;;;;;;6.88;99.72;100950.16;8338667;28;20360;-80
2022/11/11 09:22:09;;;;;;;;;;;;;;;6.95;99.80;100958.16;8338044;28;20456;-80
2022/11/11 09:26:10;;;;;;;;;;;;;;;7.06;99.80;100966.31;8346538;28;19933;-80
2022/11/11 09:30:12;;;;;;;;;;;;;;;7.08;99.16;100956.03;8353337;28;19935;-79
2022/11/11 09:34:14;;;;;;;;;;;;;;;7.14;98.94;100959.69;8350368;28;20404;-80
2022/11/11 09:38:15;;;;;;;;;;;;;;;7.28;99.15;100968.78;8353240;28;20015;-80
2022/11/11 09:42:23;;;;;;;;;;;;;;;7.32;98.70;100974.06;8348116;28;19925;-80
2022/11/11 09:46:45;;;;;;;;;;;;;;;7.38;98.07;100982.94;8348245;28;20401;-80
2022/11/11 09:50:53;;;;;;;;;;;;;;;7.39;97.70;100984.69;8339462;28;20353;-80
2022/11/11 09:54:56;;;;;;;;;;;;;;;7.40;96.90;100983.84;8343289;28;19925;-80
2022/11/11 09:59:18;;;;;;;;;;;;;;;7.37;96.16;100981.16;8371373;28;19924;-80
2022/11/11 10:03:21;;;;;;;;;;;;;;;7.38;95.79;100976.88;8343009;28;20636;-81
2022/11/11 10:07:38;;;;;;;;;;;;;;;7.41;95.86;100982.13;8331641;28;20028;-79
2022/11/11 10:11:49;;;;;;;;;;;;;;;7.45;95.30;100971.06;8347372;28;19943;-79
2022/11/11 10:15:51;;;;;;;;;;;;;;;7.47;95.52;100972.88;8324738;28;20352;-79
2022/11/11 10:19:55;;;;;;;;;;;;;;;7.53;95.03;100973.06;8357525;28;19943;-79
2022/11/11 10:24:00;;;;;;;;;;;;;;;7.59;95.53;100964.66;8355626;28;19939;-79
2022/11/11 10:28:02;;;;;;;;;;;;;;;7.66;95.34;100960.56;8378801;28;19929;-79
2022/11/11 10:32:24;;;;;;;;;;;;;;;7.68;95.15;100964.06;8321708;28;19928;-79
2022/11/11 10:36:27;;;;;;;;;;;;;;;7.75;94.91;100963.47;8294454;28;20428;-79
2022/11/11 10:40:36;;;;;;;;;;;;;;;7.81;94.70;100959.34;8309030;28;19946;-79
2022/11/11 10:44:37;;;;;;;;;;;;;;;7.93;95.05;100958.00;8294798;28;19968;-79
2022/11/11 10:48:45;;;;;;;;;;;;;;;8.06;95.83;100953.22;8273600;28;20379;-79
2022/11/11 10:52:49;;;;;;;;;;;;;;;8.15;95.31;100945.75;8271629;28;19935;-79
2022/11/11 10:57:01;;;;;;;;;;;;;;;8.19;94.68;100933.78;8294850;28;19929;-79
2022/11/11 11:01:06;;;;;;;;;;;;;;;8.29;95.23;100934.94;8282891;28;19929;-79
2022/11/11 11:05:09;;;;;;;;;;;;;;;8.31;94.93;100923.81;8275768;28;19999;-79
2022/11/11 11:09:23;;;;;;;;;;;;;;;8.34;94.47;100918.75;8269428;28;19960;-79
2022/11/11 11:13:43;;;;;;;;;;;;;;;8.29;93.26;100917.72;8286512;28;19926;-79
2022/11/11 11:18:09;;;;;;;;;;;;;;;8.33;93.49;100921.25;8286682;28;19940;-79
2022/11/11 11:22:10;;;;;;;;;;;;;;;8.34;93.61;100903.22;8282440;28;19926;-79
2022/11/11 11:26:13;;;;;;;;;;;;;;;8.36;93.74;100900.69;8285891;28;20565;-78
2022/11/11 11:30:15;;;;;;;;;;;;;;;8.42;93.60;100913.78;8302010;28;20252;-79
2022/11/11 11:34:17;;;;;;;;;;;;;;;8.40;92.55;100925.81;8306229;28;19929;-79
2022/11/11 11:38:19;;;;;;;;;;;;;;;8.41;92.57;100923.25;8335882;28;20107;-78
2022/11/11 11:42:34;;;;;;;;;;;;;;;8.49;93.17;100923.50;8364248;28;19943;-78
2022/11/11 11:46:41;;;;;;;;;;;;;;;8.53;93.02;100927.03;8333660;28;19929;-78
2022/11/11 11:50:50;;;;;;;;;;;;;;;8.57;92.58;100915.94;8353791;28;20090;-78
2022/11/11 11:54:59;;;;;;;;;;;;;;;8.63;92.23;100911.81;8338054;28;19960;-79
2022/11/11 11:59:05;;;;;;;;;;;;;;;8.66;92.10;100919.69;8329917;28;19971;-78
2022/11/11 12:03:07;;;;;;;;;;;;;;;8.73;92.31;100913.81;8336314;28;19932;-80
2022/11/11 12:07:14;;;;;;;;;;;;;;;8.62;91.45;100914.38;8340425;28;20586;-79
2022/11/11 12:11:22;;;;;;;;;;;;;;;8.62;91.86;100916.97;8335712;28;19944;-78
2022/11/11 12:15:29;;;;;;;;;;;;;;;8.66;91.75;100903.25;8348153;28;19935;-79
2022/11/11 12:19:40;;;;;;;;;;;;;;;8.74;92.33;100906.91;8327969;28;19929;-78
2022/11/11 12:23:42;;;;;;;;;;;;;;;8.69;92.15;100901.63;8329321;28;19987;-79
2022/11/11 12:27:48;;;;;;;;;;;;;;;8.72;92.38;100911.19;8339741;28;20504;-78
2022/11/11 12:31:59;;;;;;;;;;;;;;;8.70;92.44;100905.97;8333504;28;20641;-78
2022/11/11 12:36:12;;;;;;;;;;;;;;;8.74;93.11;100907.78;8330625;28;19951;-80
2022/11/11 12:40:16;;;;;;;;;;;;;;;8.84;93.78;100916.72;8347273;28;19928;-79
2022/11/11 12:44:21;;;;;;;;;;;;;;;8.92;93.84;100906.53;8316958;28;20007;-78
2022/11/11 12:48:29;;;;;;;;;;;;;;;8.95;93.51;100910.09;8323576;28;20275;-80
2022/11/11 12:52:36;;;;;;;;;;;;;;;8.97;93.06;100913.59;8333399;28;20620;-79
2022/11/11 12:56:47;;;;;;;;;;;;;;;9.03;93.17;100903.41;8352366;28;19936;-79
2022/11/11 13:00:53;;;;;;;;;;;;;;;9.06;92.83;100906.06;8313190;28;19929;-80
2022/11/11 13:05:13;;;;;;;;;;;;;;;8.99;91.87;100900.72;8330831;28;19933;-79
2022/11/11 13:09:34;;;;;;;;;;;;;;;9.00;91.70;100898.16;8331635;28;20482;-79
2022/11/11 13:13:44;;;;;;;;;;;;;;;9.03;92.28;100902.53;8325350;28;19932;-80
2022/11/11 13:17:46;;;;;;;;;;;;;;;9.05;92.49;100908.63;8306600;28;20031;-78
2022/11/11 13:21:51;;;;;;;;;;;;;;;9.05;92.63;100900.84;8332141;28;19967;-80
2022/11/11 13:25:54;;;;;;;;;;;;;;;9.00;91.82;100905.03;8353665;28;20341;-79
2022/11/11 13:30:20;;;;;;;;;;;;;;;8.89;92.08;100903.88;8322210;28;19928;-79
2022/11/11 13:34:23;;;;;;;;;;;;;;;8.84;92.07;100898.59;8355899;28;19932;-80
2022/11/11 13:38:37;;;;;;;;;;;;;;;8.84;93.18;100906.34;8342334;28;20357;-78
2022/11/11 13:42:40;;;;;;;;;;;;;;;8.89;93.51;100909.06;8315313;28;19979;-79
2022/11/11 13:46:43;;;;;;;;;;;;;;;8.83;93.38;100912.38;8315594;28;19932;-78
2022/11/11 13:50:50;;;;;;;;;;;;;;;8.88;94.21;100917.66;8332499;28;19932;-79
2022/11/11 13:54:57;;;;;;;;;;;;;;;8.88;94.57;100915.06;8355660;28;19987;-79
2022/11/11 13:58:59;;;;;;;;;;;;;;;8.83;93.94;100914.97;8343206;28;20364;-80
2022/11/11 14:03:12;;;;;;;;;;;;;;;8.79;94.58;100916.56;8311614;28;20304;-78
2022/11/11 14:07:33;;;;;;;;;;;;;;;8.78;94.45;100920.00;8335978;28;19929;-78
2022/11/11 14:11:35;;;;;;;;;;;;;;;8.77;95.36;100923.41;8330250;28;20024;-81
2022/11/11 14:15:43;;;;;;;;;;;;;;;8.79;95.90;100920.88;8320048;28;19929;-80
2022/11/11 14:19:45;;;;;;;;;;;;;;;8.75;95.30;100912.13;8349557;28;19956;-78
2022/11/11 14:23:52;;;;;;;;;;;;;;;8.74;95.49;100907.78;8344837;28;19925;-79
2022/11/11 14:27:53;;;;;;;;;;;;;;;8.78;95.88;100911.34;8337633;28;19928;-78
2022/11/11 14:31:54;;;;;;;;;;;;;;;8.81;96.58;100908.00;8356540;28;19925;-79
2022/11/11 14:36:00;;;;;;;;;;;;;;;8.84;96.83;100911.53;8340367;28;19940;-79
2022/11/11 14:40:01;;;;;;;;;;;;;;;8.87;96.17;100906.44;8341332;28;20520;-80
2022/11/11 14:44:21;;;;;;;;;;;;;;;8.85;96.67;100902.91;8350020;28;19929;-80
2022/11/11 14:48:41;;;;;;;;;;;;;;;8.87;97.13;100897.78;8342838;28;19950;-78
2022/11/11 14:52:43;;;;;;;;;;;;;;;8.89;97.30;100896.09;8359705;28;19965;-78
2022/11/11 14:56:52;;;;;;;;;;;;;;;8.90;97.21;100890.97;8358969;28;20362;-78
2022/11/11 15:01:09;;;;;;;;;;;;;;;8.92;97.08;100889.28;8332814;28;20370;-79
2022/11/11 15:05:16;;;;;;;;;;;;;;;8.91;96.88;100884.06;8350149;28;20560;-81
2022/11/11 15:09:18;;;;;;;;;;;;;;;8.89;96.40;100884.03;8329273;28;20039;-77
2022/11/11 15:13:35;;;;;;;;;;;;;;;8.90;96.43;100877.13;8336579;28;19943;-77
2022/11/11 15:17:39;;;;;;;;;;;;;;;8.91;96.76;100878.88;8334716;28;19932;-77
2022/11/11 15:22:16;;;;;;;;;;;;;;;8.89;96.72;100871.06;8341834;28;19987;-79
2022/11/11 15:26:27;;;;;;;;;;;;;;;8.82;96.74;100874.34;8254485;28;20561;-77
2022/11/11 15:30:47;;;;;;;;;;;;;;;8.81;97.21;100874.31;8324495;28;19929;-77
2022/11/11 15:34:55;;;;;;;;;;;;;;;8.80;96.82;100870.84;8345977;28;20027;-78
2022/11/11 15:38:58;;;;;;;;;;;;;;;8.80;97.40;100886.38;8346346;28;19933;-79
2022/11/11 15:43:02;;;;;;;;;;;;;;;8.73;97.32;100880.16;8357087;28;20028;-79
2022/11/11 15:47:04;;;;;;;;;;;;;;;8.74;97.38;100870.66;8334870;28;20006;-79
2022/11/11 15:51:15;;;;;;;;;;;;;;;8.73;97.45;100874.09;8327720;28;20357;-79
2022/11/11 15:55:21;;;;;;;;;;;;;;;8.74;97.56;100870.66;8335337;28;19933;-79
2022/11/11 15:59:28;;;;;;;;;;;;;;;8.73;98.14;100879.28;8337912;28;19925;-80
2022/11/11 16:03:38;;;;;;;;;;;;;;;8.72;97.38;100878.41;8353667;28;19938;-80
2022/11/11 16:07:43;;;;;;;;;;;;;;;8.68;97.65;100886.06;8324382;28;19925;-80
2022/11/11 16:11:45;;;;;;;;;;;;;;;8.65;97.88;100880.78;8321183;28;19935;-80
2022/11/11 16:15:49;;;;;;;;;;;;;;;8.64;98.42;100879.91;8335224;28;20276;-80
2022/11/11 16:19:51;;;;;;;;;;;;;;;8.64;97.97;100881.63;8326742;28;19943;-80
2022/11/11 16:23:53;;;;;;;;;;;;;;;8.64;98.42;100876.44;8365058;28;19951;-80
2022/11/11 16:27:54;;;;;;;;;;;;;;;8.58;98.33;100876.25;8327695;28;20309;-80
2022/11/11 16:31:56;;;;;;;;;;;;;;;8.56;97.89;100880.53;8339999;28;20346;-80
2022/11/11 16:36:08;;;;;;;;;;;;;;;8.55;98.17;100882.25;8339909;28;19925;-80
2022/11/11 16:40:48;;;;;;;;;;;;;;;8.45;98.11;100877.66;8338194;28;19974;-80
2022/11/11 16:44:51;;;;;;;;;;;;;;;8.42;98.43;100880.13;8236218;28;21000;-80
2022/11/11 16:48:53;;;;;;;;;;;;;;;8.37;98.97;100885.19;8214040;28;20422;-80
2022/11/11 16:52:55;;;;;;;;;;;;;;;8.30;99.07;100885.81;8254014;28;19992;-80
2022/11/11 16:56:58;;;;;;;;;;;;;;;8.34;99.11;100892.88;8248020;28;19995;-80
2022/11/11 17:01:01;;;;;;;;;;;;;;;8.35;99.82;100886.84;8221234;28;19956;-80
2022/11/11 17:05:03;;;;;;;;;;;;;;;8.32;99.70;100889.34;8207286;28;20021;-80
2022/11/11 17:09:24;;;;;;;;;;;;;;;8.25;99.59;100900.31;8255921;28;19925;-80
2022/11/11 17:13:27;;;;;;;;;;;;;;;8.26;99.83;100891.75;8246283;28;19974;-81
2022/11/11 17:17:29;;;;;;;;;;;;;;;8.26;99.67;100885.66;8340813;28;20051;-80
2022/11/11 17:21:31;;;;;;;;;;;;;;;8.25;100.00;100891.69;8357191;28;20027;-80
2022/11/11 17:25:32;;;;;;;;;;;;;;;8.22;99.82;100892.47;8369367;28;19929;-80
2022/11/11 17:29:34;;;;;;;;;;;;;;;8.21;100.00;100898.47;8339192;28;19986;-81
2022/11/11 17:33:39;;;;;;;;;;;;;;;8.21;99.99;100900.19;8353593;28;19928;-81
2022/11/11 17:37:40;;;;;;;;;;;;;;;8.17;99.40;100907.00;8339324;28;20581;-81
2022/11/11 17:41:42;;;;;;;;;;;;;;;8.07;98.92;100903.25;8348807;28;19933;-81
2022/11/11 17:45:44;;;;;;;;;;;;;;;7.99;99.37;100907.31;8323413;28;19975;-80
2022/11/11 17:49:46;;;;;;;;;;;;;;;7.95;99.36;100902.91;8335874;28;19936;-80
2022/11/11 17:53:58;;;;;;;;;;;;;;;7.83;99.99;100916.31;8343083;28;19933;-80
2022/11/11 17:58:01;;;;;;;;;;;;;;;7.80;99.96;100915.34;8356497;28;19929;-81
2022/11/11 18:02:02;;;;;;;;;;;;;;;7.80;100.00;100921.41;8337524;28;19925;-81
2022/11/11 18:06:04;;;;;;;;;;;;;;;7.77;100.00;100923.00;8339468;28;19929;-81
2022/11/11 18:10:06;;;;;;;;;;;;;;;7.76;100.00;100916.97;8338084;28;20169;-80
2022/11/11 18:14:08;;;;;;;;;;;;;;;7.71;100.00;100926.25;8368279;28;20273;-78
2022/11/11 18:18:09;;;;;;;;;;;;;;;7.69;100.00;100919.28;8338061;28;19960;-78
2022/11/11 18:22:10;;;;;;;;;;;;;;;7.66;100.00;100920.06;8358318;28;19928;-77
2022/11/11 18:26:12;;;;;;;;;;;;;;;7.71;100.00;100905.56;8351564;28;19933;-77
2022/11/11 18:30:13;;;;;;;;;;;;;;;7.69;100.00;100896.91;8345982;28;20438;-77
2022/11/11 18:34:15;;;;;;;;;;;;;;;7.67;100.00;100897.69;8338752;28;20320;-78
2022/11/11 18:38:16;;;;;;;;;;;;;;;7.69;100.00;100896.03;8333704;28;19958;-77
2022/11/11 18:42:18;;;;;;;;;;;;;;;7.73;100.00;100897.91;8330972;28;19977;-77
2022/11/11 18:46:23;;;;;;;;;;;;;;;7.73;100.00;100895.31;8331507;28;20316;-77
2022/11/11 18:50:25;;;;;;;;;;;;;;;7.74;100.00;100886.72;8353433;28;19984;-77
2022/11/11 18:54:26;;;;;;;;;;;;;;;7.79;100.00;100885.16;8351584;28;19978;-77
2022/11/11 18:58:31;;;;;;;;;;;;;;;7.78;100.00;100893.75;8342041;28;19928;-78
2022/11/11 19:02:32;;;;;;;;;;;;;;;7.72;100.00;100890.94;8344839;28;19971;-77
2022/11/11 19:06:36;;;;;;;;;;;;;;;7.73;100.00;100887.56;8337111;28;19929;-77
2022/11/11 19:10:38;;;;;;;;;;;;;;;7.71;100.00;100894.34;8344662;28;19932;-77
2022/11/11 19:14:39;;;;;;;;;;;;;;;7.75;100.00;100897.13;8342943;28;19961;-77
2022/11/11 19:18:40;;;;;;;;;;;;;;;7.80;100.00;100902.41;8333595;28;19932;-77
2022/11/11 19:22:42;;;;;;;;;;;;;;;7.79;100.00;100905.84;8323262;28;19964;-77
2022/11/11 19:26:46;;;;;;;;;;;;;;;7.82;100.00;100911.97;8333258;28;19971;-77
2022/11/11 19:30:47;;;;;;;;;;;;;;;7.84;100.00;100904.25;8334288;28;19928;-80
2022/11/11 19:34:49;;;;;;;;;;;;;;;7.85;100.00;100908.59;8347779;28;20598;-80
2022/11/11 19:38:50;;;;;;;;;;;;;;;7.85;100.00;100912.06;8359996;28;20531;-80
2022/11/11 19:42:54;;;;;;;;;;;;;;;7.87;100.00;100912.09;8356860;28;19924;-80
2022/11/11 19:46:56;;;;;;;;;;;;;;;7.90;100.00;100909.66;8322716;28;19940;-80
2022/11/11 19:51:09;;;;;;;;;;;;;;;7.89;100.00;100911.31;8334030;28;19962;-80
2022/11/11 19:55:10;;;;;;;;;;;;;;;7.93;100.00;100901.09;8359065;28;19925;-80
2022/11/11 19:59:11;;;;;;;;;;;;;;;7.94;100.00;100911.47;8342543;28;19986;-80
2022/11/11 20:03:13;;;;;;;;;;;;;;;7.98;100.00;100910.75;8326422;28;19929;-80
2022/11/11 20:07:14;;;;;;;;;;;;;;;8.00;100.00;100923.72;8353198;28;20532;-80
2022/11/11 20:11:16;;;;;;;;;;;;;;;8.01;100.00;100920.28;8332658;28;20027;-80
2022/11/11 20:15:17;;;;;;;;;;;;;;;7.97;100.00;100936.56;8358582;28;19978;-80
2022/11/11 20:19:19;;;;;;;;;;;;;;;7.98;100.00;100930.56;8340049;28;19928;-80
2022/11/11 20:23:20;;;;;;;;;;;;;;;7.97;100.00;100937.44;8343092;28;19983;-82
2022/11/11 20:27:22;;;;;;;;;;;;;;;7.96;100.00;100938.28;8325781;28;20013;-81
2022/11/11 20:31:23;;;;;;;;;;;;;;;7.95;100.00;100930.47;8322974;28;19946;-81
2022/11/11 20:35:25;;;;;;;;;;;;;;;7.95;100.00;100941.69;8299740;28;19933;-81
2022/11/11 20:39:26;;;;;;;;;;;;;;;7.88;100.00;100929.38;8282304;28;19976;-81
2022/11/11 20:43:29;;;;;;;;;;;;;;;7.84;100.00;100924.94;8291514;28;19933;-81
2022/11/11 20:47:30;;;;;;;;;;;;;;;7.80;100.00;100934.31;8293256;28;19950;-81
2022/11/11 20:51:35;;;;;;;;;;;;;;;7.78;100.00;100928.22;8302959;28;19968;-81
2022/11/11 20:55:39;;;;;;;;;;;;;;;7.77;100.00;100918.72;8321885;28;20287;-81
2022/11/11 21:04:26;;;;;;;;;;;;;;;7.83;100.00;100923.19;10035889;23;19931;-81
2022/11/11 21:08:29;;;;;;;;;;;;;;;7.84;100.00;100915.47;8378627;28;19925;-81
2022/11/11 21:12:33;;;;;;;;;;;;;;;7.87;100.00;100915.56;8390467;28;19990;-81
2022/11/11 21:16:36;;;;;;;;;;;;;;;7.89;100.00;100915.63;8371466;28;19925;-82
2022/11/11 21:20:38;;;;;;;;;;;;;;;7.87;100.00;100922.44;8364150;28;19935;-81
2022/11/11 21:24:39;;;;;;;;;;;;;;;7.85;100.00;100922.41;8376790;28;19974;-81
2022/11/11 21:28:42;;;;;;;;;;;;;;;7.83;100.00;100920.59;8388460;28;19997;-82
2022/11/11 21:32:44;;;;;;;;;;;;;;;7.78;100.00;100917.00;8359570;28;20327;-81
2022/11/11 21:36:45;;;;;;;;;;;;;;;7.70;100.00;100911.56;8381650;28;19929;-80
2022/11/11 21:40:47;;;;;;;;;;;;;;;7.68;100.00;100913.25;8389800;28;20250;-82
2022/11/11 21:44:49;;;;;;;;;;;;;;;7.66;100.00;100917.50;8360490;28;20349;-80
2022/11/11 21:48:52;;;;;;;;;;;;;;;7.63;100.00;100917.41;8367932;28;19975;-80
2022/11/11 21:52:53;;;;;;;;;;;;;;;7.62;100.00;100907.88;8376473;28;20008;-80
2022/11/11 21:56:54;;;;;;;;;;;;;;;7.65;100.00;100904.53;8375075;28;19932;-80
2022/11/11 22:01:03;;;;;;;;;;;;;;;7.65;100.00;100910.56;8384948;28;19932;-80
2022/11/11 22:05:06;;;;;;;;;;;;;;;7.65;100.00;100904.53;8386471;28;19940;-82
2022/11/11 22:09:08;;;;;;;;;;;;;;;7.57;100.00;100912.03;8374202;28;19924;-80
2022/11/11 22:13:10;;;;;;;;;;;;;;;7.49;100.00;100916.06;8361734;28;19982;-80